FIN33V BIKF-EFHK
Flight info
| Callsign | FIN33V |
|---|---|
| Flight time | 3h 41m |
| Altitude | 37000 |
| Route | LUTER DCT 64N010W DCT ISVIG/N0438F370 DCT PIBIM DCT EDAPA DCT EDANU DCT BAMVA DCT OLGUV DCT OVDAL DCT ASVOB DCT NIFOT DCT UXADA Y349 AMROT Y362 LAKUT |
| Aircraft | A319/M-SDE3FGHIRWY/LB1 |
Departure
| Time | 2026-04-26 12:23 |
|---|---|
| Airport | Keflavik International Airport (BIKF) |
Arrival
| Time | 2026-04-26 16:04 |
|---|---|
| Airport | Helsinki Vantaa Airport (EFHK) |
| Time | Latitude | Longitude | Altitude | Speed | Heading |
|---|---|---|---|---|---|
| 2026-04-26 11:52 | 63.99256 | -22.61791 | 187 ft | 0 kts | 89° |
| 2026-04-26 12:11 | 63.99256 | -22.61796 | 188 ft | 2 kts | 89° |
| 2026-04-26 12:11 | 63.99256 | -22.61855 | 181 ft | 4 kts | 92° |
| 2026-04-26 12:11 | 63.99258 | -22.61916 | 183 ft | 4 kts | 100° |
| 2026-04-26 12:11 | 63.99266 | -22.61974 | 183 ft | 4 kts | 125° |
| 2026-04-26 12:12 | 63.99280 | -22.62001 | 183 ft | 1 kts | 178° |
| 2026-04-26 12:17 | 63.99279 | -22.62001 | 183 ft | 0 kts | 178° |
| 2026-04-26 12:17 | 63.99274 | -22.62000 | 183 ft | 0 kts | 178° |
| 2026-04-26 12:18 | 63.99271 | -22.62000 | 183 ft | 1 kts | 177° |
| 2026-04-26 12:18 | 63.99249 | -22.61998 | 182 ft | 8 kts | 177° |
| 2026-04-26 12:18 | 63.99178 | -22.62026 | 183 ft | 10 kts | 225° |
| 2026-04-26 12:18 | 63.99172 | -22.62252 | 183 ft | 19 kts | 269° |
| 2026-04-26 12:19 | 63.99170 | -22.62596 | 183 ft | 16 kts | 270° |
| 2026-04-26 12:19 | 63.99072 | -22.62753 | 183 ft | 23 kts | 198° |
| 2026-04-26 12:19 | 63.98929 | -22.62852 | 183 ft | 18 kts | 196° |
| 2026-04-26 12:19 | 63.98858 | -22.63053 | 183 ft | 22 kts | 271° |
| 2026-04-26 12:20 | 63.98857 | -22.63434 | 183 ft | 25 kts | 267° |
| 2026-04-26 12:20 | 63.98854 | -22.63873 | 183 ft | 27 kts | 269° |
| 2026-04-26 12:20 | 63.98852 | -22.64359 | 183 ft | 34 kts | 270° |
| 2026-04-26 12:20 | 63.98852 | -22.64850 | 183 ft | 32 kts | 271° |
| 2026-04-26 12:21 | 63.98856 | -22.65291 | 183 ft | 21 kts | 271° |
| 2026-04-26 12:21 | 63.98772 | -22.65476 | 183 ft | 22 kts | 178° |
| 2026-04-26 12:21 | 63.98602 | -22.65473 | 183 ft | 23 kts | 181° |
| 2026-04-26 12:21 | 63.98500 | -22.65417 | 184 ft | 10 kts | 102° |
| 2026-04-26 12:22 | 63.98501 | -22.65355 | 184 ft | 0 kts | 89° |
| 2026-04-26 12:22 | 63.98501 | -22.65335 | 184 ft | 3 kts | 89° |
| 2026-04-26 12:22 | 63.98502 | -22.65116 | 182 ft | 47 kts | 90° |
| 2026-04-26 12:22 | 63.98501 | -22.63689 | 184 ft | 130 kts | 90° |
| 2026-04-26 12:23 | 63.98497 | -22.61168 | 409 ft | 172 kts | 91° |
| 2026-04-26 12:23 | 63.98448 | -22.58436 | 1321 ft | 176 kts | 99° |
| 2026-04-26 12:23 | 63.98397 | -22.55649 | 2201 ft | 181 kts | 96° |
| 2026-04-26 12:23 | 63.98397 | -22.52591 | 2654 ft | 205 kts | 95° |
| 2026-04-26 12:24 | 63.98411 | -22.49145 | 3132 ft | 230 kts | 94° |
| 2026-04-26 12:24 | 63.98425 | -22.45344 | 3725 ft | 248 kts | 94° |
| 2026-04-26 12:24 | 63.98534 | -22.41364 | 4621 ft | 258 kts | 85° |
| 2026-04-26 12:25 | 63.99128 | -22.33226 | 6438 ft | 268 kts | 82° |
| 2026-04-26 12:25 | 63.99451 | -22.28986 | 7302 ft | 272 kts | 83° |
| 2026-04-26 12:25 | 63.99776 | -22.24665 | 8241 ft | 275 kts | 83° |
| 2026-04-26 12:25 | 64.00087 | -22.20392 | 9132 ft | 278 kts | 83° |
| 2026-04-26 12:26 | 64.00396 | -22.16020 | 10007 ft | 281 kts | 84° |
| 2026-04-26 12:26 | 64.00716 | -22.11406 | 10456 ft | 301 kts | 85° |
| 2026-04-26 12:26 | 64.01047 | -22.06575 | 11014 ft | 313 kts | 83° |
| 2026-04-26 12:26 | 64.01389 | -22.01619 | 11769 ft | 318 kts | 84° |
| 2026-04-26 12:27 | 64.01736 | -21.96614 | 12596 ft | 321 kts | 84° |
| 2026-04-26 12:27 | 64.02085 | -21.91555 | 13411 ft | 325 kts | 83° |
| 2026-04-26 12:27 | 64.02436 | -21.86419 | 14211 ft | 329 kts | 83° |
| 2026-04-26 12:27 | 64.02788 | -21.81236 | 14965 ft | 332 kts | 82° |
| 2026-04-26 12:28 | 64.03138 | -21.75989 | 15631 ft | 337 kts | 83° |
| 2026-04-26 12:28 | 64.03488 | -21.70668 | 16285 ft | 341 kts | 83° |
| 2026-04-26 12:28 | 64.03843 | -21.65306 | 16975 ft | 344 kts | 84° |
| 2026-04-26 12:28 | 64.04203 | -21.59875 | 17612 ft | 348 kts | 83° |
| 2026-04-26 12:29 | 64.04567 | -21.54386 | 18281 ft | 351 kts | 84° |
| 2026-04-26 12:29 | 64.04930 | -21.48846 | 18854 ft | 355 kts | 83° |
| 2026-04-26 12:29 | 64.05652 | -21.37685 | 20057 ft | 359 kts | 83° |
| 2026-04-26 12:30 | 64.06015 | -21.32028 | 20663 ft | 362 kts | 83° |
| 2026-04-26 12:30 | 64.06378 | -21.26311 | 21261 ft | 365 kts | 84° |
| 2026-04-26 12:30 | 64.06738 | -21.20577 | 21917 ft | 366 kts | 83° |
| 2026-04-26 12:31 | 64.07460 | -21.08971 | 23146 ft | 370 kts | 83° |
| 2026-04-26 12:31 | 64.07824 | -21.03116 | 23691 ft | 374 kts | 82° |
| 2026-04-26 12:31 | 64.08193 | -20.97129 | 24173 ft | 377 kts | 82° |
| 2026-04-26 12:31 | 64.08555 | -20.91256 | 24652 ft | 379 kts | 82° |
| 2026-04-26 12:32 | 64.08921 | -20.85261 | 25093 ft | 383 kts | 83° |
| 2026-04-26 12:32 | 64.09286 | -20.79230 | 25539 ft | 386 kts | 83° |
| 2026-04-26 12:32 | 64.10016 | -20.66990 | 26437 ft | 391 kts | 83° |
| 2026-04-26 12:33 | 64.10376 | -20.60830 | 26879 ft | 393 kts | 83° |
| 2026-04-26 12:33 | 64.10744 | -20.54517 | 27324 ft | 395 kts | 83° |
| 2026-04-26 12:33 | 64.11100 | -20.48346 | 27746 ft | 398 kts | 83° |
| 2026-04-26 12:33 | 64.11459 | -20.42050 | 28166 ft | 400 kts | 83° |
| 2026-04-26 12:34 | 64.11786 | -20.35715 | 28589 ft | 403 kts | 84° |
| 2026-04-26 12:34 | 64.12034 | -20.29314 | 28998 ft | 405 kts | 86° |
| 2026-04-26 12:34 | 64.12214 | -20.22807 | 29413 ft | 407 kts | 87° |
| 2026-04-26 12:34 | 64.12349 | -20.16361 | 29810 ft | 410 kts | 87° |
| 2026-04-26 12:35 | 64.12469 | -20.09835 | 30181 ft | 412 kts | 88° |
| 2026-04-26 12:35 | 64.12585 | -20.03258 | 30535 ft | 414 kts | 88° |
| 2026-04-26 12:35 | 64.12706 | -19.96565 | 30878 ft | 416 kts | 88° |
| 2026-04-26 12:35 | 64.12831 | -19.90019 | 31194 ft | 418 kts | 88° |
| 2026-04-26 12:36 | 64.12969 | -19.83347 | 31487 ft | 421 kts | 88° |
| 2026-04-26 12:36 | 64.13112 | -19.76643 | 31772 ft | 423 kts | 88° |
| 2026-04-26 12:36 | 64.13253 | -19.69912 | 32156 ft | 423 kts | 88° |
| 2026-04-26 12:36 | 64.13388 | -19.63092 | 32558 ft | 423 kts | 88° |
| 2026-04-26 12:37 | 64.13515 | -19.56452 | 32953 ft | 423 kts | 88° |
| 2026-04-26 12:37 | 64.13642 | -19.49645 | 33337 ft | 423 kts | 89° |
| 2026-04-26 12:37 | 64.13762 | -19.42997 | 33717 ft | 423 kts | 89° |
| 2026-04-26 12:37 | 64.13879 | -19.36265 | 34088 ft | 423 kts | 89° |
| 2026-04-26 12:38 | 64.13995 | -19.29529 | 34375 ft | 424 kts | 89° |
| 2026-04-26 12:38 | 64.14106 | -19.22782 | 34660 ft | 424 kts | 89° |
| 2026-04-26 12:38 | 64.14215 | -19.16027 | 34931 ft | 425 kts | 89° |
| 2026-04-26 12:38 | 64.14323 | -19.09252 | 35170 ft | 426 kts | 89° |
| 2026-04-26 12:39 | 64.14428 | -19.02454 | 35400 ft | 427 kts | 89° |
| 2026-04-26 12:39 | 64.14529 | -18.95654 | 35625 ft | 429 kts | 90° |
| 2026-04-26 12:39 | 64.14627 | -18.88820 | 35855 ft | 430 kts | 90° |
| 2026-04-26 12:39 | 64.14692 | -18.84190 | 36003 ft | 430 kts | 90° |
| 2026-04-26 12:40 | 64.14786 | -18.77320 | 36223 ft | 431 kts | 90° |
| 2026-04-26 12:40 | 64.14875 | -18.70452 | 36425 ft | 433 kts | 90° |
| 2026-04-26 12:40 | 64.14958 | -18.63551 | 36631 ft | 434 kts | 90° |
| 2026-04-26 12:40 | 64.15041 | -18.56630 | 36833 ft | 435 kts | 90° |
| 2026-04-26 12:41 | 64.15120 | -18.49701 | 37013 ft | 436 kts | 90° |
| 2026-04-26 12:41 | 64.15271 | -18.35940 | 37063 ft | 429 kts | 90° |
| 2026-04-26 12:42 | 64.15407 | -18.22380 | 37062 ft | 428 kts | 90° |
| 2026-04-26 12:42 | 64.15530 | -18.08689 | 37065 ft | 428 kts | 90° |
| 2026-04-26 12:43 | 64.15641 | -17.95042 | 37073 ft | 428 kts | 90° |
| 2026-04-26 12:43 | 64.15737 | -17.81385 | 37074 ft | 428 kts | 91° |
| 2026-04-26 12:44 | 64.15818 | -17.67748 | 37073 ft | 428 kts | 91° |
| 2026-04-26 12:44 | 64.15893 | -17.54102 | 37073 ft | 428 kts | 91° |
| 2026-04-26 12:45 | 64.15956 | -17.40478 | 37076 ft | 427 kts | 91° |
| 2026-04-26 12:45 | 64.15997 | -17.26886 | 37085 ft | 427 kts | 91° |
| 2026-04-26 12:46 | 64.16034 | -17.13322 | 37084 ft | 426 kts | 91° |
| 2026-04-26 12:46 | 64.16059 | -16.99715 | 37083 ft | 426 kts | 92° |
| 2026-04-26 12:47 | 64.16066 | -16.86136 | 37085 ft | 426 kts | 92° |
| 2026-04-26 12:47 | 64.16065 | -16.72570 | 37085 ft | 426 kts | 92° |
| 2026-04-26 12:48 | 64.16045 | -16.58992 | 37086 ft | 426 kts | 92° |
| 2026-04-26 12:48 | 64.16013 | -16.45421 | 37088 ft | 426 kts | 92° |
| 2026-04-26 12:49 | 64.15975 | -16.31828 | 37093 ft | 426 kts | 92° |
| 2026-04-26 12:49 | 64.15920 | -16.18245 | 37091 ft | 426 kts | 92° |
| 2026-04-26 12:50 | 64.15854 | -16.04663 | 37090 ft | 426 kts | 93° |
| 2026-04-26 12:50 | 64.15776 | -15.91081 | 37091 ft | 426 kts | 93° |
| 2026-04-26 12:51 | 64.15680 | -15.77505 | 37100 ft | 425 kts | 93° |
| 2026-04-26 12:51 | 64.15573 | -15.63964 | 37103 ft | 425 kts | 93° |
| 2026-04-26 12:52 | 64.15462 | -15.50419 | 37110 ft | 425 kts | 93° |
| 2026-04-26 12:52 | 64.15330 | -15.36899 | 37099 ft | 425 kts | 93° |
| 2026-04-26 12:53 | 64.15187 | -15.23328 | 37099 ft | 426 kts | 93° |
| 2026-04-26 12:53 | 64.15037 | -15.09780 | 37095 ft | 426 kts | 94° |
| 2026-04-26 12:54 | 64.14871 | -14.96193 | 37084 ft | 426 kts | 94° |
| 2026-04-26 12:54 | 64.14686 | -14.82622 | 37092 ft | 426 kts | 94° |
| 2026-04-26 12:55 | 64.14490 | -14.69058 | 37100 ft | 426 kts | 94° |
| 2026-04-26 12:55 | 64.14290 | -14.55493 | 37103 ft | 426 kts | 94° |
| 2026-04-26 12:56 | 64.14075 | -14.41845 | 37102 ft | 426 kts | 94° |
| 2026-04-26 12:56 | 64.13846 | -14.28301 | 37095 ft | 425 kts | 94° |
| 2026-04-26 12:57 | 64.13604 | -14.14773 | 37103 ft | 425 kts | 95° |
| 2026-04-26 12:57 | 64.13346 | -14.01254 | 37106 ft | 425 kts | 95° |
| 2026-04-26 12:58 | 64.12935 | -13.81007 | 37104 ft | 424 kts | 95° |
| 2026-04-26 12:58 | 64.12653 | -13.67544 | 37111 ft | 424 kts | 95° |
| 2026-04-26 12:59 | 64.12348 | -13.54081 | 37108 ft | 423 kts | 95° |
| 2026-04-26 12:59 | 64.12044 | -13.40638 | 37094 ft | 423 kts | 96° |
| 2026-04-26 13:00 | 64.11722 | -13.27190 | 37098 ft | 423 kts | 96° |
| 2026-04-26 13:00 | 64.11384 | -13.13626 | 37111 ft | 423 kts | 96° |
| 2026-04-26 13:01 | 64.11040 | -13.00182 | 37119 ft | 423 kts | 96° |
| 2026-04-26 13:01 | 64.10683 | -12.86733 | 37118 ft | 423 kts | 96° |
| 2026-04-26 13:02 | 64.10307 | -12.73311 | 37102 ft | 423 kts | 97° |
| 2026-04-26 13:02 | 64.09916 | -12.59901 | 37099 ft | 423 kts | 96° |
| 2026-04-26 13:03 | 64.09515 | -12.46467 | 37095 ft | 423 kts | 96° |
| 2026-04-26 13:03 | 64.09113 | -12.33049 | 37114 ft | 423 kts | 96° |
| 2026-04-26 13:04 | 64.08693 | -12.19620 | 37117 ft | 423 kts | 96° |
| 2026-04-26 13:04 | 64.08257 | -12.06196 | 37117 ft | 423 kts | 96° |
| 2026-04-26 13:05 | 64.07809 | -11.92766 | 37120 ft | 423 kts | 97° |
| 2026-04-26 13:05 | 64.07353 | -11.79352 | 37105 ft | 424 kts | 97° |
| 2026-04-26 13:06 | 64.06882 | -11.65937 | 37117 ft | 424 kts | 97° |
| 2026-04-26 13:06 | 64.06393 | -11.52482 | 37120 ft | 425 kts | 97° |
| 2026-04-26 13:07 | 64.05894 | -11.39054 | 37127 ft | 425 kts | 97° |
| 2026-04-26 13:07 | 64.05389 | -11.25606 | 37137 ft | 425 kts | 97° |
| 2026-04-26 13:08 | 64.04861 | -11.12015 | 37140 ft | 426 kts | 97° |
| 2026-04-26 13:08 | 64.04325 | -10.98570 | 37134 ft | 426 kts | 98° |
| 2026-04-26 13:09 | 64.03773 | -10.85111 | 37140 ft | 426 kts | 98° |
| 2026-04-26 13:09 | 64.03211 | -10.71654 | 37149 ft | 426 kts | 97° |
| 2026-04-26 13:10 | 64.02636 | -10.58194 | 37152 ft | 426 kts | 98° |
| 2026-04-26 13:10 | 64.02047 | -10.44751 | 37155 ft | 426 kts | 99° |
| 2026-04-26 13:11 | 64.01450 | -10.31289 | 37162 ft | 426 kts | 98° |
| 2026-04-26 13:11 | 64.00839 | -10.17844 | 37154 ft | 426 kts | 99° |
| 2026-04-26 13:12 | 64.00207 | -10.04416 | 37159 ft | 427 kts | 99° |
| 2026-04-26 13:12 | 63.99481 | -9.90979 | 37163 ft | 427 kts | 100° |
| 2026-04-26 13:13 | 63.98623 | -9.77604 | 37166 ft | 427 kts | 101° |
| 2026-04-26 13:13 | 63.97730 | -9.64255 | 37172 ft | 427 kts | 101° |
| 2026-04-26 13:14 | 63.96847 | -9.50879 | 37174 ft | 427 kts | 101° |
| 2026-04-26 13:14 | 63.95959 | -9.37501 | 37180 ft | 427 kts | 101° |
| 2026-04-26 13:15 | 63.95209 | -9.26408 | 37184 ft | 427 kts | 101° |
| 2026-04-26 13:15 | 63.94297 | -9.13067 | 37185 ft | 427 kts | 101° |
| 2026-04-26 13:16 | 63.93371 | -8.99708 | 37195 ft | 427 kts | 102° |
| 2026-04-26 13:16 | 63.92431 | -8.86364 | 37197 ft | 427 kts | 101° |
| 2026-04-26 13:17 | 63.91008 | -8.66391 | 37204 ft | 427 kts | 101° |
| 2026-04-26 13:18 | 63.89552 | -8.46444 | 37203 ft | 427 kts | 102° |
| 2026-04-26 13:19 | 63.88062 | -8.26521 | 37210 ft | 426 kts | 102° |
| 2026-04-26 13:19 | 63.87062 | -8.13271 | 37203 ft | 427 kts | 102° |
| 2026-04-26 13:20 | 63.86052 | -8.00006 | 37210 ft | 427 kts | 102° |
| 2026-04-26 13:20 | 63.85025 | -7.86760 | 37209 ft | 427 kts | 102° |
| 2026-04-26 13:21 | 63.83987 | -7.73513 | 37195 ft | 427 kts | 102° |
| 2026-04-26 13:21 | 63.82934 | -7.60299 | 37197 ft | 427 kts | 103° |
| 2026-04-26 13:22 | 63.81875 | -7.47118 | 37201 ft | 427 kts | 103° |
| 2026-04-26 13:22 | 63.80798 | -7.33878 | 37203 ft | 427 kts | 102° |
| 2026-04-26 13:23 | 63.79711 | -7.20663 | 37209 ft | 427 kts | 102° |
| 2026-04-26 13:23 | 63.78607 | -7.07483 | 37219 ft | 427 kts | 103° |
| 2026-04-26 13:24 | 63.77492 | -6.94282 | 37214 ft | 427 kts | 102° |
| 2026-04-26 13:24 | 63.76366 | -6.81109 | 37223 ft | 427 kts | 103° |
| 2026-04-26 13:25 | 63.75230 | -6.67932 | 37223 ft | 427 kts | 103° |
| 2026-04-26 13:25 | 63.74086 | -6.54769 | 37225 ft | 427 kts | 103° |
| 2026-04-26 13:26 | 63.72924 | -6.41628 | 37235 ft | 427 kts | 104° |
| 2026-04-26 13:26 | 63.71750 | -6.28509 | 37230 ft | 427 kts | 104° |
| 2026-04-26 13:27 | 63.70565 | -6.15385 | 37231 ft | 427 kts | 104° |
| 2026-04-26 13:27 | 63.69368 | -6.02249 | 37228 ft | 428 kts | 103° |
| 2026-04-26 13:28 | 63.68155 | -5.89127 | 37224 ft | 428 kts | 104° |
| 2026-04-26 13:28 | 63.66934 | -5.76004 | 37236 ft | 428 kts | 103° |
| 2026-04-26 13:29 | 63.65702 | -5.62859 | 37242 ft | 429 kts | 103° |
| 2026-04-26 13:29 | 63.64450 | -5.49733 | 37254 ft | 429 kts | 104° |
| 2026-04-26 13:30 | 63.63188 | -5.36616 | 37241 ft | 429 kts | 104° |
| 2026-04-26 13:30 | 63.61915 | -5.23508 | 37255 ft | 429 kts | 104° |
| 2026-04-26 13:31 | 63.60627 | -5.10401 | 37261 ft | 430 kts | 104° |
| 2026-04-26 13:31 | 63.59330 | -4.97281 | 37266 ft | 430 kts | 104° |
| 2026-04-26 13:32 | 63.58013 | -4.84176 | 37279 ft | 430 kts | 105° |
| 2026-04-26 13:32 | 63.56685 | -4.71080 | 37283 ft | 430 kts | 105° |
| 2026-04-26 13:33 | 63.55346 | -4.57995 | 37281 ft | 430 kts | 104° |
| 2026-04-26 13:33 | 63.53997 | -4.44915 | 37284 ft | 430 kts | 104° |
| 2026-04-26 13:34 | 63.52632 | -4.31846 | 37281 ft | 431 kts | 104° |
| 2026-04-26 13:34 | 63.51258 | -4.18783 | 37289 ft | 431 kts | 104° |
| 2026-04-26 13:35 | 63.49891 | -4.05822 | 37294 ft | 431 kts | 104° |
| 2026-04-26 13:35 | 63.48485 | -3.92696 | 37302 ft | 431 kts | 104° |
| 2026-04-26 13:36 | 63.47068 | -3.79683 | 37292 ft | 431 kts | 104° |
| 2026-04-26 13:36 | 63.45651 | -3.66728 | 37298 ft | 432 kts | 104° |
| 2026-04-26 13:37 | 63.44210 | -3.53686 | 37297 ft | 433 kts | 105° |
| 2026-04-26 13:37 | 63.42754 | -3.40564 | 37298 ft | 433 kts | 104° |
| 2026-04-26 13:38 | 63.41292 | -3.27521 | 37301 ft | 433 kts | 105° |
| 2026-04-26 13:38 | 63.39802 | -3.14469 | 37293 ft | 434 kts | 105° |
| 2026-04-26 13:39 | 63.38306 | -3.01446 | 37313 ft | 433 kts | 105° |
| 2026-04-26 13:39 | 63.36812 | -2.88511 | 37312 ft | 434 kts | 105° |
| 2026-04-26 13:40 | 63.35288 | -2.75416 | 37318 ft | 434 kts | 105° |
| 2026-04-26 13:40 | 63.33769 | -2.62396 | 37327 ft | 434 kts | 105° |
| 2026-04-26 13:41 | 63.32230 | -2.49393 | 37330 ft | 434 kts | 105° |
| 2026-04-26 13:41 | 63.30681 | -2.36465 | 37340 ft | 434 kts | 105° |
| 2026-04-26 13:42 | 63.29119 | -2.23508 | 37341 ft | 434 kts | 105° |
| 2026-04-26 13:42 | 63.27540 | -2.10540 | 37342 ft | 434 kts | 105° |
| 2026-04-26 13:43 | 63.25956 | -1.97616 | 37345 ft | 434 kts | 105° |
| 2026-04-26 13:43 | 63.24351 | -1.84671 | 37343 ft | 434 kts | 106° |
| 2026-04-26 13:44 | 63.22735 | -1.71737 | 37342 ft | 434 kts | 106° |
| 2026-04-26 13:44 | 63.21116 | -1.58833 | 37341 ft | 434 kts | 106° |
| 2026-04-26 13:45 | 63.19489 | -1.45970 | 37351 ft | 434 kts | 106° |
| 2026-04-26 13:45 | 63.17827 | -1.32994 | 37343 ft | 435 kts | 106° |
| 2026-04-26 13:46 | 63.16167 | -1.20154 | 37342 ft | 435 kts | 106° |
| 2026-04-26 13:46 | 63.14489 | -1.07266 | 37341 ft | 435 kts | 106° |
| 2026-04-26 13:47 | 63.12802 | -0.94435 | 37340 ft | 435 kts | 106° |
| 2026-04-26 13:47 | 63.11110 | -0.81618 | 37342 ft | 435 kts | 107° |
| 2026-04-26 13:48 | 63.09396 | -0.68721 | 37341 ft | 434 kts | 107° |
| 2026-04-26 13:48 | 63.07684 | -0.55934 | 37350 ft | 434 kts | 107° |
| 2026-04-26 13:49 | 63.05960 | -0.43170 | 37358 ft | 434 kts | 107° |
| 2026-04-26 13:49 | 63.04215 | -0.30409 | 37358 ft | 434 kts | 107° |
| 2026-04-26 13:50 | 63.02459 | -0.17687 | 37359 ft | 434 kts | 107° |
| 2026-04-26 13:50 | 63.00700 | -0.04976 | 37359 ft | 434 kts | 105° |
| 2026-04-26 13:51 | 63.00032 | 0.08181 | 37350 ft | 434 kts | 89° |
| 2026-04-26 13:51 | 63.00077 | 0.21469 | 37346 ft | 434 kts | 89° |
| 2026-04-26 13:52 | 63.00082 | 0.32521 | 37351 ft | 435 kts | 89° |
| 2026-04-26 13:52 | 63.00074 | 0.45835 | 37352 ft | 435 kts | 89° |
| 2026-04-26 13:53 | 63.00063 | 0.59151 | 37353 ft | 435 kts | 90° |
| 2026-04-26 13:53 | 63.00040 | 0.72548 | 37359 ft | 435 kts | 90° |
| 2026-04-26 13:54 | 62.99999 | 0.85877 | 37361 ft | 435 kts | 90° |
| 2026-04-26 13:54 | 62.99949 | 0.99188 | 37359 ft | 435 kts | 90° |
| 2026-04-26 13:55 | 62.99875 | 1.16910 | 37357 ft | 435 kts | 90° |
| 2026-04-26 13:56 | 62.99745 | 1.39137 | 37362 ft | 435 kts | 90° |
| 2026-04-26 13:56 | 62.99643 | 1.52457 | 37373 ft | 436 kts | 90° |
| 2026-04-26 13:57 | 62.99527 | 1.65784 | 37368 ft | 436 kts | 90° |
| 2026-04-26 13:57 | 62.99405 | 1.79115 | 37367 ft | 436 kts | 90° |
| 2026-04-26 13:58 | 62.99273 | 1.92480 | 37370 ft | 436 kts | 90° |
| 2026-04-26 13:58 | 62.99124 | 2.05818 | 37371 ft | 436 kts | 90° |
| 2026-04-26 13:59 | 62.98961 | 2.19146 | 37376 ft | 436 kts | 90° |
| 2026-04-26 13:59 | 62.98783 | 2.32461 | 37376 ft | 436 kts | 90° |
| 2026-04-26 14:00 | 62.98399 | 2.59136 | 37370 ft | 437 kts | 90° |
| 2026-04-26 14:01 | 62.98185 | 2.72492 | 37376 ft | 437 kts | 91° |
| 2026-04-26 14:01 | 62.97960 | 2.85830 | 37373 ft | 437 kts | 91° |
| 2026-04-26 14:02 | 62.97728 | 2.99173 | 37370 ft | 437 kts | 91° |
| 2026-04-26 14:02 | 62.97481 | 3.12519 | 37372 ft | 437 kts | 90° |
| 2026-04-26 14:03 | 62.97220 | 3.25883 | 37367 ft | 437 kts | 91° |
| 2026-04-26 14:03 | 62.96942 | 3.39310 | 37366 ft | 437 kts | 91° |
| 2026-04-26 14:04 | 62.96642 | 3.52661 | 37364 ft | 438 kts | 91° |
| 2026-04-26 14:04 | 62.96325 | 3.66026 | 37364 ft | 438 kts | 92° |
| 2026-04-26 14:05 | 62.95706 | 3.79231 | 37383 ft | 439 kts | 96° |
| 2026-04-26 14:05 | 62.94855 | 3.92163 | 37362 ft | 440 kts | 97° |
| 2026-04-26 14:06 | 62.93979 | 4.05578 | 37358 ft | 440 kts | 96° |
| 2026-04-26 14:06 | 62.93169 | 4.18867 | 37359 ft | 440 kts | 96° |
| 2026-04-26 14:07 | 62.92362 | 4.32237 | 37361 ft | 441 kts | 96° |
| 2026-04-26 14:07 | 62.91542 | 4.45648 | 37364 ft | 441 kts | 96° |
| 2026-04-26 14:08 | 62.90739 | 4.58964 | 37371 ft | 442 kts | 95° |
| 2026-04-26 14:08 | 62.89916 | 4.72363 | 37366 ft | 442 kts | 96° |
| 2026-04-26 14:09 | 62.89073 | 4.85727 | 37368 ft | 443 kts | 96° |
| 2026-04-26 14:09 | 62.88215 | 4.99087 | 37371 ft | 443 kts | 96° |
| 2026-04-26 14:10 | 62.87343 | 5.12487 | 37374 ft | 444 kts | 96° |
| 2026-04-26 14:10 | 62.86460 | 5.25858 | 37390 ft | 444 kts | 96° |
| 2026-04-26 14:11 | 62.85142 | 5.45358 | 37374 ft | 445 kts | 96° |
| 2026-04-26 14:11 | 62.84259 | 5.58866 | 37371 ft | 445 kts | 95° |
| 2026-04-26 14:12 | 62.83418 | 5.72194 | 37370 ft | 445 kts | 95° |
| 2026-04-26 14:12 | 62.82547 | 5.85568 | 37370 ft | 445 kts | 96° |
| 2026-04-26 14:13 | 62.81197 | 6.05731 | 37380 ft | 445 kts | 96° |
| 2026-04-26 14:14 | 62.80288 | 6.19017 | 37373 ft | 445 kts | 96° |
| 2026-04-26 14:14 | 62.79362 | 6.32386 | 37365 ft | 445 kts | 96° |
| 2026-04-26 14:15 | 62.78419 | 6.45834 | 37363 ft | 445 kts | 96° |
| 2026-04-26 14:15 | 62.77477 | 6.59116 | 37356 ft | 445 kts | 96° |
| 2026-04-26 14:16 | 62.76508 | 6.72527 | 37354 ft | 445 kts | 96° |
| 2026-04-26 14:16 | 62.75536 | 6.85858 | 37357 ft | 445 kts | 96° |
| 2026-04-26 14:17 | 62.74543 | 6.99283 | 37553 ft | 452 kts | 97° |
| 2026-04-26 14:17 | 62.74032 | 7.06078 | 37694 ft | 456 kts | 97° |
| 2026-04-26 14:17 | 62.73513 | 7.12931 | 37896 ft | 457 kts | 97° |
| 2026-04-26 14:17 | 62.72992 | 7.19769 | 38150 ft | 458 kts | 97° |
| 2026-04-26 14:18 | 62.72470 | 7.26597 | 38416 ft | 457 kts | 97° |
| 2026-04-26 14:18 | 62.71944 | 7.33460 | 38683 ft | 457 kts | 97° |
| 2026-04-26 14:18 | 62.71417 | 7.40300 | 38966 ft | 457 kts | 97° |
| 2026-04-26 14:18 | 62.70888 | 7.47109 | 39170 ft | 457 kts | 97° |
| 2026-04-26 14:19 | 62.70343 | 7.54037 | 39307 ft | 458 kts | 97° |
| 2026-04-26 14:19 | 62.69251 | 7.67691 | 39345 ft | 457 kts | 97° |
| 2026-04-26 14:20 | 62.68154 | 7.81333 | 39337 ft | 457 kts | 97° |
| 2026-04-26 14:20 | 62.67056 | 7.94954 | 39337 ft | 457 kts | 97° |
| 2026-04-26 14:21 | 62.65932 | 8.08573 | 39335 ft | 457 kts | 98° |
| 2026-04-26 14:21 | 62.64923 | 8.22206 | 39359 ft | 455 kts | 91° |
| 2026-04-26 14:22 | 62.64375 | 8.35915 | 39350 ft | 456 kts | 91° |
| 2026-04-26 14:22 | 62.63810 | 8.49659 | 39347 ft | 456 kts | 91° |
| 2026-04-26 14:23 | 62.63327 | 8.61074 | 39346 ft | 456 kts | 92° |
| 2026-04-26 14:23 | 62.62732 | 8.74796 | 39346 ft | 457 kts | 92° |
| 2026-04-26 14:24 | 62.62124 | 8.88530 | 39346 ft | 457 kts | 92° |
| 2026-04-26 14:24 | 62.61500 | 9.02265 | 39347 ft | 457 kts | 91° |
| 2026-04-26 14:25 | 62.60865 | 9.16008 | 39336 ft | 458 kts | 92° |
| 2026-04-26 14:25 | 62.60219 | 9.29773 | 39325 ft | 458 kts | 92° |
| 2026-04-26 14:26 | 62.59563 | 9.43560 | 39319 ft | 459 kts | 92° |
| 2026-04-26 14:26 | 62.58888 | 9.57343 | 39312 ft | 460 kts | 92° |
| 2026-04-26 14:27 | 62.58192 | 9.71134 | 39331 ft | 460 kts | 92° |
| 2026-04-26 14:27 | 62.57485 | 9.84925 | 39318 ft | 460 kts | 92° |
| 2026-04-26 14:28 | 62.56763 | 9.98735 | 39314 ft | 461 kts | 92° |
| 2026-04-26 14:28 | 62.56024 | 10.12548 | 39307 ft | 461 kts | 92° |
| 2026-04-26 14:29 | 62.55274 | 10.26359 | 39309 ft | 461 kts | 92° |
| 2026-04-26 14:29 | 62.54513 | 10.40175 | 39330 ft | 462 kts | 92° |
| 2026-04-26 14:30 | 62.53741 | 10.54013 | 39320 ft | 463 kts | 92° |
| 2026-04-26 14:30 | 62.52950 | 10.67860 | 39308 ft | 463 kts | 92° |
| 2026-04-26 14:31 | 62.52138 | 10.81695 | 39305 ft | 463 kts | 93° |
| 2026-04-26 14:31 | 62.51318 | 10.95517 | 39296 ft | 463 kts | 93° |
| 2026-04-26 14:32 | 62.50487 | 11.09337 | 39329 ft | 463 kts | 93° |
| 2026-04-26 14:32 | 62.49629 | 11.23285 | 39281 ft | 464 kts | 93° |
| 2026-04-26 14:33 | 62.48761 | 11.37130 | 39276 ft | 465 kts | 93° |
| 2026-04-26 14:33 | 62.47878 | 11.51095 | 39277 ft | 466 kts | 93° |
| 2026-04-26 14:34 | 62.46991 | 11.64887 | 39278 ft | 466 kts | 93° |
| 2026-04-26 14:34 | 62.46072 | 11.78862 | 39281 ft | 467 kts | 94° |
| 2026-04-26 14:35 | 62.45151 | 11.92748 | 39291 ft | 467 kts | 93° |
| 2026-04-26 14:35 | 62.44218 | 12.06646 | 39280 ft | 468 kts | 93° |
| 2026-04-26 14:36 | 62.43273 | 12.20545 | 39264 ft | 468 kts | 92° |
| 2026-04-26 14:36 | 62.42667 | 12.34480 | 39266 ft | 466 kts | 88° |
| 2026-04-26 14:37 | 62.42291 | 12.48417 | 39252 ft | 465 kts | 88° |
| 2026-04-26 14:37 | 62.41860 | 12.62358 | 39273 ft | 466 kts | 89° |
| 2026-04-26 14:38 | 62.41323 | 12.76278 | 39266 ft | 465 kts | 90° |
| 2026-04-26 14:38 | 62.40754 | 12.90171 | 39257 ft | 465 kts | 90° |
| 2026-04-26 14:39 | 62.40190 | 13.04037 | 39234 ft | 464 kts | 90° |
| 2026-04-26 14:39 | 62.39615 | 13.17905 | 39232 ft | 464 kts | 90° |
| 2026-04-26 14:40 | 62.38470 | 13.31689 | 39239 ft | 468 kts | 96° |
| 2026-04-26 14:40 | 62.37187 | 13.45439 | 39238 ft | 467 kts | 96° |
| 2026-04-26 14:41 | 62.35900 | 13.59147 | 39229 ft | 466 kts | 96° |
| 2026-04-26 14:41 | 62.34600 | 13.72810 | 39224 ft | 466 kts | 97° |
| 2026-04-26 14:42 | 62.33289 | 13.86454 | 39214 ft | 465 kts | 97° |
| 2026-04-26 14:42 | 62.31966 | 14.00022 | 39208 ft | 465 kts | 97° |
| 2026-04-26 14:43 | 62.30624 | 14.13662 | 39179 ft | 465 kts | 97° |
| 2026-04-26 14:43 | 62.29279 | 14.27243 | 39170 ft | 465 kts | 97° |
| 2026-04-26 14:44 | 62.27922 | 14.40804 | 39163 ft | 464 kts | 97° |
| 2026-04-26 14:44 | 62.26545 | 14.54374 | 39161 ft | 465 kts | 97° |
| 2026-04-26 14:45 | 62.25153 | 14.67928 | 39199 ft | 465 kts | 97° |
| 2026-04-26 14:45 | 62.23752 | 14.81451 | 39155 ft | 466 kts | 97° |
| 2026-04-26 14:46 | 62.22313 | 14.95178 | 39161 ft | 467 kts | 98° |
| 2026-04-26 14:46 | 62.20879 | 15.08781 | 39160 ft | 468 kts | 98° |
| 2026-04-26 14:47 | 62.19429 | 15.22380 | 39162 ft | 468 kts | 98° |
| 2026-04-26 14:47 | 62.17956 | 15.35965 | 39152 ft | 469 kts | 98° |
| 2026-04-26 14:48 | 62.16470 | 15.49558 | 39170 ft | 469 kts | 98° |
| 2026-04-26 14:48 | 62.14980 | 15.63136 | 39147 ft | 469 kts | 98° |
| 2026-04-26 14:49 | 62.13470 | 15.76715 | 39146 ft | 470 kts | 98° |
| 2026-04-26 14:49 | 62.11950 | 15.90298 | 39128 ft | 470 kts | 98° |
| 2026-04-26 14:50 | 62.10411 | 16.03884 | 39128 ft | 471 kts | 99° |
| 2026-04-26 14:50 | 62.08849 | 16.17444 | 39137 ft | 471 kts | 99° |
| 2026-04-26 14:51 | 62.07280 | 16.31003 | 39128 ft | 470 kts | 99° |
| 2026-04-26 14:51 | 62.05709 | 16.44544 | 39105 ft | 471 kts | 99° |
| 2026-04-26 14:52 | 62.04122 | 16.58084 | 39105 ft | 471 kts | 99° |
| 2026-04-26 14:52 | 62.02506 | 16.71616 | 39090 ft | 471 kts | 99° |
| 2026-04-26 14:53 | 62.00888 | 16.85052 | 39104 ft | 471 kts | 99° |
| 2026-04-26 14:53 | 61.99242 | 16.98619 | 39088 ft | 471 kts | 99° |
| 2026-04-26 14:54 | 61.97596 | 17.12107 | 39086 ft | 470 kts | 100° |
| 2026-04-26 14:54 | 61.95943 | 17.25551 | 39073 ft | 470 kts | 100° |
| 2026-04-26 14:55 | 61.94269 | 17.38956 | 39070 ft | 470 kts | 100° |
| 2026-04-26 14:55 | 61.92585 | 17.52388 | 39082 ft | 470 kts | 100° |
| 2026-04-26 14:56 | 61.90881 | 17.65850 | 39077 ft | 469 kts | 100° |
| 2026-04-26 14:56 | 61.89461 | 17.76958 | 39068 ft | 469 kts | 100° |
| 2026-04-26 14:57 | 61.87258 | 17.89991 | 39063 ft | 473 kts | 110° |
| 2026-04-26 14:57 | 61.84603 | 18.02755 | 39060 ft | 473 kts | 110° |
| 2026-04-26 14:58 | 61.81927 | 18.15507 | 39082 ft | 474 kts | 110° |
| 2026-04-26 14:58 | 61.79237 | 18.28183 | 39041 ft | 472 kts | 110° |
| 2026-04-26 14:59 | 61.76549 | 18.40824 | 39049 ft | 472 kts | 110° |
| 2026-04-26 14:59 | 61.73855 | 18.53463 | 39037 ft | 473 kts | 110° |
| 2026-04-26 15:00 | 61.71143 | 18.66107 | 39037 ft | 473 kts | 110° |
| 2026-04-26 15:00 | 61.68416 | 18.78714 | 39060 ft | 473 kts | 110° |
| 2026-04-26 15:01 | 61.65680 | 18.91278 | 39047 ft | 472 kts | 110° |
| 2026-04-26 15:01 | 61.62919 | 19.03842 | 39037 ft | 473 kts | 111° |
| 2026-04-26 15:02 | 61.60155 | 19.16363 | 39035 ft | 473 kts | 111° |
| 2026-04-26 15:02 | 61.57382 | 19.28881 | 39026 ft | 472 kts | 111° |
| 2026-04-26 15:03 | 61.54593 | 19.41387 | 39051 ft | 473 kts | 111° |
| 2026-04-26 15:03 | 61.51799 | 19.53833 | 39039 ft | 473 kts | 111° |
| 2026-04-26 15:04 | 61.48966 | 19.66385 | 39032 ft | 472 kts | 111° |
| 2026-04-26 15:04 | 61.46156 | 19.78771 | 39021 ft | 471 kts | 111° |
| 2026-04-26 15:05 | 61.43337 | 19.91129 | 39016 ft | 471 kts | 111° |
| 2026-04-26 15:05 | 61.40503 | 20.03467 | 39041 ft | 471 kts | 112° |
| 2026-04-26 15:06 | 61.37661 | 20.15764 | 39032 ft | 470 kts | 112° |
| 2026-04-26 15:06 | 61.34818 | 20.28021 | 39020 ft | 469 kts | 112° |
| 2026-04-26 15:07 | 61.30507 | 20.46320 | 39014 ft | 469 kts | 112° |
| 2026-04-26 15:07 | 61.27630 | 20.58489 | 39005 ft | 469 kts | 112° |
| 2026-04-26 15:08 | 61.24754 | 20.70666 | 39007 ft | 469 kts | 112° |
| 2026-04-26 15:08 | 61.21859 | 20.82823 | 38979 ft | 469 kts | 112° |
| 2026-04-26 15:09 | 61.18916 | 20.95001 | 38989 ft | 469 kts | 113° |
| 2026-04-26 15:09 | 61.15989 | 21.07076 | 38993 ft | 469 kts | 113° |
| 2026-04-26 15:10 | 61.13556 | 21.17129 | 38997 ft | 469 kts | 113° |
| 2026-04-26 15:10 | 61.10122 | 21.31207 | 39007 ft | 469 kts | 113° |
| 2026-04-26 15:11 | 61.07161 | 21.43236 | 39002 ft | 469 kts | 114° |
| 2026-04-26 15:11 | 61.04188 | 21.55278 | 38296 ft | 475 kts | 113° |
| 2026-04-26 15:12 | 61.02689 | 21.61335 | 37800 ft | 472 kts | 113° |
| 2026-04-26 15:12 | 61.01196 | 21.67328 | 37311 ft | 469 kts | 113° |
| 2026-04-26 15:12 | 60.99708 | 21.73279 | 36795 ft | 467 kts | 113° |
| 2026-04-26 15:12 | 60.98222 | 21.79215 | 36270 ft | 465 kts | 112° |
| 2026-04-26 15:13 | 60.96738 | 21.85144 | 35731 ft | 465 kts | 112° |
| 2026-04-26 15:13 | 60.95259 | 21.91054 | 35183 ft | 466 kts | 112° |
| 2026-04-26 15:13 | 60.93766 | 21.96994 | 34611 ft | 467 kts | 112° |
| 2026-04-26 15:13 | 60.92265 | 22.02927 | 34034 ft | 468 kts | 112° |
| 2026-04-26 15:14 | 60.90760 | 22.08859 | 33411 ft | 469 kts | 111° |
| 2026-04-26 15:14 | 60.89249 | 22.14793 | 32866 ft | 467 kts | 111° |
| 2026-04-26 15:14 | 60.87745 | 22.20680 | 32306 ft | 466 kts | 111° |
| 2026-04-26 15:14 | 60.86240 | 22.26556 | 31748 ft | 464 kts | 110° |
| 2026-04-26 15:15 | 60.84739 | 22.32416 | 31188 ft | 463 kts | 110° |
| 2026-04-26 15:15 | 60.83247 | 22.38232 | 30657 ft | 462 kts | 110° |
| 2026-04-26 15:15 | 60.81748 | 22.44066 | 30122 ft | 461 kts | 109° |
| 2026-04-26 15:15 | 60.80253 | 22.49856 | 29519 ft | 461 kts | 110° |
| 2026-04-26 15:16 | 60.78735 | 22.55711 | 29025 ft | 456 kts | 110° |
| 2026-04-26 15:16 | 60.77249 | 22.61415 | 28513 ft | 452 kts | 110° |
| 2026-04-26 15:16 | 60.75778 | 22.67053 | 28021 ft | 448 kts | 110° |
| 2026-04-26 15:16 | 60.74339 | 22.72568 | 27528 ft | 444 kts | 110° |
| 2026-04-26 15:17 | 60.72868 | 22.78196 | 27026 ft | 441 kts | 110° |
| 2026-04-26 15:17 | 60.71913 | 22.81839 | 26707 ft | 439 kts | 110° |
| 2026-04-26 15:17 | 60.69991 | 22.89157 | 26027 ft | 436 kts | 110° |
| 2026-04-26 15:17 | 60.68578 | 22.94540 | 25528 ft | 435 kts | 111° |
| 2026-04-26 15:18 | 60.67132 | 23.00041 | 24980 ft | 434 kts | 111° |
| 2026-04-26 15:18 | 60.65701 | 23.05465 | 24517 ft | 433 kts | 112° |
| 2026-04-26 15:18 | 60.64299 | 23.10740 | 24264 ft | 424 kts | 112° |
| 2026-04-26 15:18 | 60.62877 | 23.16062 | 23816 ft | 421 kts | 112° |
| 2026-04-26 15:19 | 60.61484 | 23.21266 | 23382 ft | 418 kts | 112° |
| 2026-04-26 15:19 | 60.60096 | 23.26436 | 22884 ft | 414 kts | 112° |
| 2026-04-26 15:19 | 60.58742 | 23.31474 | 22418 ft | 410 kts | 112° |
| 2026-04-26 15:19 | 60.57362 | 23.36621 | 21949 ft | 406 kts | 112° |
| 2026-04-26 15:20 | 60.56031 | 23.41579 | 21491 ft | 401 kts | 113° |
| 2026-04-26 15:20 | 60.54686 | 23.46575 | 21161 ft | 397 kts | 113° |
| 2026-04-26 15:20 | 60.53361 | 23.51482 | 20573 ft | 394 kts | 113° |
| 2026-04-26 15:20 | 60.52052 | 23.56312 | 20135 ft | 390 kts | 113° |
| 2026-04-26 15:21 | 60.50746 | 23.61119 | 19693 ft | 386 kts | 113° |
| 2026-04-26 15:21 | 60.49458 | 23.65851 | 19324 ft | 381 kts | 114° |
| 2026-04-26 15:21 | 60.48186 | 23.70518 | 18935 ft | 376 kts | 114° |
| 2026-04-26 15:21 | 60.46929 | 23.75132 | 18519 ft | 372 kts | 114° |
| 2026-04-26 15:22 | 60.45680 | 23.79701 | 18090 ft | 369 kts | 114° |
| 2026-04-26 15:22 | 60.44442 | 23.84221 | 17609 ft | 366 kts | 114° |
| 2026-04-26 15:22 | 60.43209 | 23.88714 | 17112 ft | 363 kts | 114° |
| 2026-04-26 15:22 | 60.41985 | 23.93169 | 16635 ft | 361 kts | 114° |
| 2026-04-26 15:23 | 60.40769 | 23.97585 | 16182 ft | 358 kts | 114° |
| 2026-04-26 15:23 | 60.39562 | 24.01952 | 15737 ft | 355 kts | 114° |
| 2026-04-26 15:23 | 60.38355 | 24.06307 | 15298 ft | 353 kts | 114° |
| 2026-04-26 15:23 | 60.37144 | 24.10671 | 14854 ft | 351 kts | 114° |
| 2026-04-26 15:24 | 60.35950 | 24.14965 | 14431 ft | 349 kts | 114° |
| 2026-04-26 15:24 | 60.34784 | 24.19156 | 14022 ft | 347 kts | 114° |
| 2026-04-26 15:24 | 60.33607 | 24.23375 | 13664 ft | 343 kts | 115° |
| 2026-04-26 15:24 | 60.32439 | 24.27555 | 13221 ft | 341 kts | 115° |
| 2026-04-26 15:25 | 60.31278 | 24.31707 | 12738 ft | 339 kts | 115° |
| 2026-04-26 15:25 | 60.30496 | 24.34497 | 12421 ft | 337 kts | 115° |
| 2026-04-26 15:25 | 60.28970 | 24.39936 | 11798 ft | 335 kts | 115° |
| 2026-04-26 15:25 | 60.27826 | 24.44010 | 11315 ft | 334 kts | 115° |
| 2026-04-26 15:26 | 60.26688 | 24.48044 | 11084 ft | 325 kts | 116° |
| 2026-04-26 15:26 | 60.25586 | 24.51932 | 10906 ft | 315 kts | 116° |
| 2026-04-26 15:26 | 60.24504 | 24.55736 | 10570 ft | 312 kts | 116° |
| 2026-04-26 15:26 | 60.23431 | 24.59512 | 10166 ft | 311 kts | 115° |
| 2026-04-26 15:27 | 60.22354 | 24.63301 | 9725 ft | 312 kts | 115° |
| 2026-04-26 15:27 | 60.21279 | 24.67080 | 9292 ft | 311 kts | 115° |
| 2026-04-26 15:27 | 60.20215 | 24.70814 | 8995 ft | 305 kts | 115° |
| 2026-04-26 15:27 | 60.19161 | 24.74500 | 8612 ft | 303 kts | 115° |
| 2026-04-26 15:28 | 60.18115 | 24.78157 | 8250 ft | 300 kts | 115° |
| 2026-04-26 15:28 | 60.17080 | 24.81762 | 7865 ft | 297 kts | 115° |
| 2026-04-26 15:28 | 60.16050 | 24.85344 | 7459 ft | 295 kts | 115° |
| 2026-04-26 15:28 | 60.15030 | 24.88897 | 7092 ft | 292 kts | 115° |
| 2026-04-26 15:29 | 60.14034 | 24.92357 | 6960 ft | 280 kts | 115° |
| 2026-04-26 15:29 | 60.13173 | 24.95733 | 6824 ft | 262 kts | 102° |
| 2026-04-26 15:29 | 60.13110 | 25.02360 | 6503 ft | 219 kts | 63° |
| 2026-04-26 15:30 | 60.14386 | 25.07534 | 5766 ft | 202 kts | 52° |
| 2026-04-26 15:30 | 60.15050 | 25.10005 | 5296 ft | 200 kts | 52° |
| 2026-04-26 15:30 | 60.15923 | 25.11987 | 4826 ft | 184 kts | 23° |
| 2026-04-26 15:31 | 60.17077 | 25.12616 | 4641 ft | 164 kts | 356° |
| 2026-04-26 15:31 | 60.18786 | 25.11402 | 4132 ft | 158 kts | 334° |
| 2026-04-26 15:31 | 60.19757 | 25.10370 | 3773 ft | 158 kts | 334° |
| 2026-04-26 15:32 | 60.20965 | 25.07750 | 3183 ft | 171 kts | 285° |
| 2026-04-26 15:32 | 60.20551 | 25.04517 | 3020 ft | 189 kts | 253° |
| 2026-04-26 15:32 | 60.19951 | 25.02135 | 3006 ft | 192 kts | 251° |
| 2026-04-26 15:33 | 60.19317 | 24.99763 | 3002 ft | 192 kts | 250° |
| 2026-04-26 15:33 | 60.18680 | 24.97398 | 3006 ft | 192 kts | 250° |
| 2026-04-26 15:33 | 60.18030 | 24.95041 | 3005 ft | 193 kts | 250° |
| 2026-04-26 15:33 | 60.17377 | 24.92605 | 3038 ft | 214 kts | 250° |
| 2026-04-26 15:34 | 60.16672 | 24.89827 | 3001 ft | 228 kts | 250° |
| 2026-04-26 15:34 | 60.15948 | 24.86973 | 3005 ft | 230 kts | 250° |
| 2026-04-26 15:34 | 60.15174 | 24.84139 | 3003 ft | 235 kts | 241° |
| 2026-04-26 15:34 | 60.13854 | 24.82077 | 3008 ft | 251 kts | 206° |
| 2026-04-26 15:35 | 60.12111 | 24.81610 | 3006 ft | 258 kts | 172° |
| 2026-04-26 15:35 | 60.10455 | 24.82899 | 3018 ft | 257 kts | 145° |
| 2026-04-26 15:35 | 60.08983 | 24.84911 | 3013 ft | 256 kts | 141° |
| 2026-04-26 15:35 | 60.07585 | 24.87096 | 3006 ft | 253 kts | 128° |
| 2026-04-26 15:36 | 60.06786 | 24.90070 | 3013 ft | 238 kts | 94° |
| 2026-04-26 15:36 | 60.06801 | 24.93266 | 3015 ft | 227 kts | 73° |
| 2026-04-26 15:36 | 60.07068 | 24.96350 | 3012 ft | 226 kts | 71° |
| 2026-04-26 15:36 | 60.07362 | 24.99450 | 3011 ft | 226 kts | 70° |
| 2026-04-26 15:37 | 60.07765 | 25.02449 | 3013 ft | 221 kts | 62° |
| 2026-04-26 15:37 | 60.08296 | 25.05330 | 3010 ft | 220 kts | 60° |
| 2026-04-26 15:37 | 60.08834 | 25.08208 | 3010 ft | 220 kts | 60° |
| 2026-04-26 15:37 | 60.09371 | 25.11084 | 3009 ft | 220 kts | 60° |
| 2026-04-26 15:38 | 60.10096 | 25.13681 | 3006 ft | 208 kts | 38° |
| 2026-04-26 15:38 | 60.11268 | 25.15210 | 3011 ft | 197 kts | 15° |
| 2026-04-26 15:38 | 60.12520 | 25.15985 | 3014 ft | 181 kts | 11° |
| 2026-04-26 15:38 | 60.13685 | 25.16626 | 2998 ft | 167 kts | 3° |
| 2026-04-26 15:39 | 60.14786 | 25.16988 | 3202 ft | 158 kts | 0° |
| 2026-04-26 15:39 | 60.15862 | 25.16838 | 3444 ft | 154 kts | 342° |
| 2026-04-26 15:39 | 60.16760 | 25.15665 | 3553 ft | 158 kts | 320° |
| 2026-04-26 15:39 | 60.17268 | 25.14614 | 3527 ft | 158 kts | 318° |
| 2026-04-26 15:40 | 60.18177 | 25.12654 | 3407 ft | 126 kts | 319° |
| 2026-04-26 15:40 | 60.18778 | 25.11501 | 3359 ft | 117 kts | 324° |
| 2026-04-26 15:40 | 60.19419 | 25.10524 | 3209 ft | 116 kts | 329° |
| 2026-04-26 15:40 | 60.20100 | 25.09665 | 2988 ft | 115 kts | 332° |
| 2026-04-26 15:41 | 60.20797 | 25.08878 | 2753 ft | 116 kts | 334° |
| 2026-04-26 15:41 | 60.21521 | 25.08176 | 2394 ft | 114 kts | 336° |
| 2026-04-26 15:41 | 60.22243 | 25.07516 | 2159 ft | 114 kts | 336° |
| 2026-04-26 15:41 | 60.22954 | 25.06827 | 2010 ft | 114 kts | 335° |
| 2026-04-26 15:42 | 60.23663 | 25.06119 | 1856 ft | 113 kts | 335° |
| 2026-04-26 15:42 | 60.24369 | 25.05415 | 1721 ft | 113 kts | 335° |
| 2026-04-26 15:42 | 60.25066 | 25.04699 | 1594 ft | 112 kts | 334° |
| 2026-04-26 15:42 | 60.25753 | 25.03938 | 1438 ft | 113 kts | 333° |
| 2026-04-26 15:43 | 60.26437 | 25.03174 | 1283 ft | 112 kts | 334° |
| 2026-04-26 15:43 | 60.27123 | 25.02431 | 1136 ft | 112 kts | 333° |
| 2026-04-26 15:43 | 60.28529 | 25.01051 | 839 ft | 113 kts | 333° |
| 2026-04-26 15:44 | 60.29236 | 25.00326 | 607 ft | 113 kts | 333° |
| 2026-04-26 15:44 | 60.30645 | 24.98881 | 268 ft | 112 kts | 331° |
| 2026-04-26 15:44 | 60.31328 | 24.98193 | 203 ft | 102 kts | 329° |
| 2026-04-26 15:45 | 60.32649 | 24.97039 | 733 ft | 123 kts | 333° |
| 2026-04-26 15:45 | 60.33475 | 24.96326 | 1388 ft | 137 kts | 338° |
| 2026-04-26 15:46 | 60.35385 | 24.94548 | 2607 ft | 160 kts | 335° |
| 2026-04-26 15:46 | 60.36415 | 24.93567 | 3027 ft | 165 kts | 339° |
| 2026-04-26 15:46 | 60.37556 | 24.93250 | 3301 ft | 169 kts | 2° |
| 2026-04-26 15:46 | 60.38308 | 24.93674 | 3333 ft | 172 kts | 19° |
| 2026-04-26 15:47 | 60.39503 | 24.95951 | 3429 ft | 184 kts | 46° |
| 2026-04-26 15:47 | 60.40563 | 25.00771 | 3149 ft | 189 kts | 60° |
| 2026-04-26 15:47 | 60.41017 | 25.03255 | 3017 ft | 188 kts | 60° |
| 2026-04-26 15:48 | 60.41473 | 25.05743 | 3009 ft | 190 kts | 61° |
| 2026-04-26 15:48 | 60.41803 | 25.08409 | 3024 ft | 210 kts | 70° |
| 2026-04-26 15:48 | 60.41996 | 25.11631 | 2998 ft | 247 kts | 88° |
| 2026-04-26 15:48 | 60.41414 | 25.14968 | 3000 ft | 266 kts | 120° |
| 2026-04-26 15:49 | 60.40018 | 25.17542 | 3009 ft | 275 kts | 146° |
| 2026-04-26 15:49 | 60.38303 | 25.19282 | 3000 ft | 277 kts | 160° |
| 2026-04-26 15:49 | 60.36418 | 25.19975 | 3002 ft | 277 kts | 180° |
| 2026-04-26 15:49 | 60.34524 | 25.19481 | 3004 ft | 273 kts | 200° |
| 2026-04-26 15:50 | 60.32798 | 25.17857 | 3004 ft | 267 kts | 219° |
| 2026-04-26 15:50 | 60.31445 | 25.15393 | 3007 ft | 259 kts | 236° |
| 2026-04-26 15:50 | 60.30157 | 25.12832 | 3004 ft | 266 kts | 218° |
| 2026-04-26 15:50 | 60.28388 | 25.11599 | 3004 ft | 276 kts | 187° |
| 2026-04-26 15:51 | 60.26498 | 25.12164 | 3011 ft | 277 kts | 157° |
| 2026-04-26 15:51 | 60.24750 | 25.13787 | 3007 ft | 276 kts | 151° |
| 2026-04-26 15:51 | 60.23033 | 25.15529 | 3006 ft | 276 kts | 150° |
| 2026-04-26 15:51 | 60.21324 | 25.17285 | 3007 ft | 276 kts | 150° |
| 2026-04-26 15:52 | 60.19832 | 25.19602 | 3003 ft | 269 kts | 123° |
| 2026-04-26 15:52 | 60.19083 | 25.22911 | 3008 ft | 256 kts | 92° |
| 2026-04-26 15:52 | 60.19226 | 25.26332 | 3009 ft | 242 kts | 65° |
| 2026-04-26 15:52 | 60.19595 | 25.28443 | 3006 ft | 241 kts | 61° |
| 2026-04-26 15:53 | 60.20376 | 25.32478 | 3004 ft | 221 kts | 61° |
| 2026-04-26 15:53 | 60.20908 | 25.35261 | 3004 ft | 204 kts | 61° |
| 2026-04-26 15:53 | 60.21070 | 25.38102 | 2988 ft | 214 kts | 94° |
| 2026-04-26 15:53 | 60.20353 | 25.40797 | 2996 ft | 229 kts | 131° |
| 2026-04-26 15:54 | 60.18854 | 25.42597 | 3023 ft | 275 kts | 157° |
| 2026-04-26 15:54 | 60.16985 | 25.43721 | 3000 ft | 285 kts | 166° |
| 2026-04-26 15:54 | 60.15080 | 25.44891 | 2997 ft | 288 kts | 165° |
| 2026-04-26 15:54 | 60.13103 | 25.44992 | 3013 ft | 284 kts | 195° |
| 2026-04-26 15:55 | 60.11362 | 25.43323 | 2998 ft | 274 kts | 226° |
| 2026-04-26 15:55 | 60.10124 | 25.40511 | 3003 ft | 267 kts | 240° |
| 2026-04-26 15:55 | 60.09021 | 25.37529 | 2992 ft | 266 kts | 240° |
| 2026-04-26 15:55 | 60.07937 | 25.34553 | 2991 ft | 258 kts | 241° |
| 2026-04-26 15:56 | 60.06923 | 25.31709 | 2997 ft | 240 kts | 250° |
| 2026-04-26 15:56 | 60.06617 | 25.28749 | 3005 ft | 202 kts | 286° |
| 2026-04-26 15:56 | 60.07186 | 25.26545 | 3089 ft | 162 kts | 323° |
| 2026-04-26 15:56 | 60.08014 | 25.25370 | 3148 ft | 135 kts | 333° |
| 2026-04-26 15:57 | 60.08798 | 25.24556 | 3046 ft | 119 kts | 339° |
| 2026-04-26 15:57 | 60.09642 | 25.23793 | 2930 ft | 145 kts | 331° |
| 2026-04-26 15:57 | 60.10572 | 25.22860 | 2753 ft | 151 kts | 335° |
| 2026-04-26 15:57 | 60.11205 | 25.22263 | 2630 ft | 153 kts | 334° |
| 2026-04-26 15:58 | 60.12493 | 25.21044 | 2519 ft | 153 kts | 336° |
| 2026-04-26 15:58 | 60.13437 | 25.20036 | 2443 ft | 154 kts | 334° |
| 2026-04-26 15:58 | 60.14373 | 25.19005 | 2338 ft | 154 kts | 333° |
| 2026-04-26 15:58 | 60.15297 | 25.17924 | 2236 ft | 154 kts | 331° |
| 2026-04-26 15:59 | 60.16199 | 25.16766 | 2099 ft | 154 kts | 328° |
| 2026-04-26 15:59 | 60.17039 | 25.15408 | 1926 ft | 157 kts | 322° |
| 2026-04-26 15:59 | 60.17837 | 25.13910 | 1727 ft | 157 kts | 320° |
| 2026-04-26 15:59 | 60.18627 | 25.12390 | 1518 ft | 157 kts | 322° |
| 2026-04-26 16:00 | 60.19488 | 25.11072 | 1448 ft | 155 kts | 329° |
| 2026-04-26 16:00 | 60.20408 | 25.09925 | 1454 ft | 155 kts | 332° |
| 2026-04-26 16:00 | 60.21341 | 25.08829 | 1429 ft | 155 kts | 333° |
| 2026-04-26 16:00 | 60.22276 | 25.07738 | 1353 ft | 156 kts | 333° |
| 2026-04-26 16:01 | 60.23216 | 25.06656 | 1328 ft | 156 kts | 333° |
| 2026-04-26 16:01 | 60.24157 | 25.05558 | 1215 ft | 157 kts | 333° |
| 2026-04-26 16:01 | 60.25077 | 25.04502 | 1012 ft | 144 kts | 333° |
| 2026-04-26 16:01 | 60.25913 | 25.03644 | 887 ft | 126 kts | 334° |
| 2026-04-26 16:02 | 60.26658 | 25.02892 | 786 ft | 118 kts | 334° |
| 2026-04-26 16:02 | 60.27387 | 25.02165 | 643 ft | 117 kts | 334° |
| 2026-04-26 16:02 | 60.28122 | 25.01453 | 626 ft | 118 kts | 335° |
| 2026-04-26 16:02 | 60.28621 | 25.00975 | 574 ft | 117 kts | 334° |
| 2026-04-26 16:03 | 60.29576 | 24.99998 | 461 ft | 114 kts | 332° |
| 2026-04-26 16:03 | 60.30303 | 24.99235 | 316 ft | 118 kts | 332° |
| 2026-04-26 16:03 | 60.31030 | 24.98492 | 206 ft | 116 kts | 332° |
| 2026-04-26 16:03 | 60.31732 | 24.97793 | 158 ft | 107 kts | 327° |
| 2026-04-26 16:04 | 60.32269 | 24.97238 | 158 ft | 51 kts | 331° |
| 2026-04-26 16:04 | 60.32554 | 24.96930 | 174 ft | 42 kts | 333° |
| 2026-04-26 16:04 | 60.32806 | 24.96671 | 171 ft | 39 kts | 333° |
| 2026-04-26 16:04 | 60.32955 | 24.96519 | 173 ft | 21 kts | 330° |
| 2026-04-26 16:05 | 60.32965 | 24.96268 | 173 ft | 15 kts | 238° |
| 2026-04-26 16:05 | 60.32873 | 24.96233 | 173 ft | 15 kts | 159° |
| 2026-04-26 16:05 | 60.32776 | 24.96339 | 172 ft | 17 kts | 150° |
| 2026-04-26 16:05 | 60.32681 | 24.96444 | 171 ft | 12 kts | 152° |
| 2026-04-26 16:06 | 60.32621 | 24.96510 | 172 ft | 9 kts | 151° |
| 2026-04-26 16:06 | 60.32563 | 24.96574 | 172 ft | 10 kts | 152° |
| 2026-04-26 16:06 | 60.32499 | 24.96642 | 175 ft | 10 kts | 152° |
| 2026-04-26 16:06 | 60.32458 | 24.96685 | 175 ft | 11 kts | 153° |
| 2026-04-26 16:07 | 60.32351 | 24.96796 | 167 ft | 11 kts | 161° |
| 2026-04-26 16:07 | 60.32302 | 24.96782 | 166 ft | 11 kts | 212° |
| 2026-04-26 16:07 | 60.32249 | 24.96661 | 167 ft | 11 kts | 228° |
| 2026-04-26 16:07 | 60.32195 | 24.96541 | 168 ft | 12 kts | 227° |
| 2026-04-26 16:08 | 60.32136 | 24.96410 | 168 ft | 12 kts | 228° |
| 2026-04-26 16:08 | 60.32074 | 24.96273 | 168 ft | 14 kts | 223° |
| 2026-04-26 16:08 | 60.32003 | 24.96130 | 168 ft | 14 kts | 227° |
| 2026-04-26 16:08 | 60.31920 | 24.96058 | 167 ft | 14 kts | 158° |
| 2026-04-26 16:09 | 60.31907 | 24.96071 | 167 ft | 3 kts | 152° |
| 2026-04-26 16:09 | 60.31876 | 24.96121 | 167 ft | 13 kts | 137° |
| 2026-04-26 16:09 | 60.31857 | 24.96298 | 167 ft | 14 kts | 78° |
| 2026-04-26 16:09 | 60.31906 | 24.96438 | 167 ft | 8 kts | 52° |
| 2026-04-26 16:10 | 60.31884 | 24.96525 | 167 ft | 5 kts | 142° |
| 2026-04-26 16:10 | 60.31870 | 24.96547 | 167 ft | 1 kts | 143° |
| 2026-04-26 16:10 | 60.31869 | 24.96548 | 167 ft | 0 kts | 143° |